Lilly, Pennsylvania
Current Conditions -  °F | °C
As of 8:54 AM on Thursday 29 Jan 2015 (Local Time) from KJST Reporting Station
Overcast Overcast  
Wind Chill: 13°   Ceiling: 7500
Heat Index: 25°   Visibility: 10mi
Dew Point:   Wind: 15mph
Humidity: 43%   Direction: 160°SSE
Pressure: 30.01"   Gusts: 21mph
Location:  40.43°N, 78.62°W
Report Text: KJST 291354Z AUTO 16013G18KT 10SM BKN075 OVC090 M04/M15 A3001 RMK AO2 PRESFR SLP200 T10391150
Loading
Personal Weather Stations






























Interactive Weather Map New forecast layout! Learn more

10-Day Weather Forecast

Advertisements
Track Severe Weather on mobile